createdAt,value
2022-08-20T05:48:35.733Z,70.64
2022-08-20T05:52:38.585Z,67.28
2022-08-20T05:56:41.642Z,66.26
2022-08-20T06:00:44.221Z,65.84
2022-08-20T06:04:48.099Z,65.32
2022-08-20T06:08:58.879Z,65.99
2022-08-20T06:13:02.887Z,66.90
2022-08-20T06:17:07.861Z,66.17
2022-08-20T06:21:11.764Z,64.25
2022-08-20T06:25:14.331Z,63.89
2022-08-20T06:29:16.985Z,62.67
2022-08-20T06:33:19.568Z,63.17
2022-08-20T06:37:30.851Z,61.68
2022-08-20T06:41:37.161Z,61.10
2022-08-20T06:45:40.659Z,59.70
2022-08-20T06:49:43.248Z,60.03
2022-08-20T06:53:47.344Z,59.91
2022-08-20T06:57:59.309Z,59.29
2022-08-20T07:02:01.959Z,58.47
2022-08-20T07:06:05.094Z,57.75
2022-08-20T07:10:12.196Z,57.78
2022-08-20T07:14:14.963Z,56.97
2022-08-20T07:18:17.893Z,55.53
2022-08-20T07:22:31.114Z,56.09
2022-08-20T07:26:35.353Z,55.23
2022-08-20T07:30:57.824Z,54.08
2022-08-20T07:35:00.552Z,53.76
2022-08-20T07:39:05.730Z,52.73
2022-08-20T07:43:10.683Z,51.90
2022-08-20T07:47:14.107Z,50.80
2022-08-20T07:51:19.126Z,52.02
2022-08-20T07:55:22.828Z,52.62
2022-08-20T07:59:26.756Z,54.44
2022-08-20T08:03:39.907Z,57.45
2022-08-20T08:07:52.088Z,57.96
2022-08-20T08:11:57.515Z,59.70
2022-08-20T08:16:02.119Z,63.19
2022-08-20T08:20:06.930Z,65.40
2022-08-20T08:24:12.127Z,65.58
2022-08-20T08:28:16.107Z,66.09
2022-08-20T08:32:20.079Z,65.72
2022-08-20T08:36:22.610Z,64.58
2022-08-20T08:40:25.188Z,63.88
2022-08-20T08:44:31.119Z,63.51
2022-08-20T08:48:38.312Z,63.44
2022-08-20T08:52:42.080Z,61.59
2022-08-20T08:56:49.703Z,60.98
2022-08-20T09:00:56.487Z,59.31
2022-08-20T09:05:05.101Z,57.66
2022-08-20T09:09:12.196Z,58.22
2022-08-20T09:13:14.759Z,58.61
2022-08-20T09:17:19.097Z,57.45
2022-08-20T09:21:22.974Z,57.08
2022-08-20T09:25:26.040Z,57.06
2022-08-20T09:29:29.356Z,57.81
2022-08-20T09:33:32.102Z,58.61
2022-08-20T09:37:37.725Z,58.51
2022-08-20T09:41:41.331Z,58.72
2022-08-20T09:45:43.944Z,58.83
2022-08-20T09:49:47.260Z,58.70
2022-08-20T09:53:51.561Z,59.83
2022-08-20T09:57:54.716Z,60.05
2022-08-20T10:01:58.221Z,60.26
2022-08-20T10:06:00.865Z,59.24
2022-08-20T10:10:06.431Z,63.01
2022-08-20T10:14:09.075Z,63.01
2022-08-20T10:18:12.280Z,61.80
2022-08-20T10:22:15.131Z,60.18
2022-08-20T10:26:19.243Z,60.03
2022-08-20T10:30:22.728Z,59.17
2022-08-20T10:34:26.382Z,56.42
2022-08-20T10:38:29.083Z,54.88
2022-08-20T10:42:33.009Z,52.38
2022-08-20T10:46:35.776Z,53.37
2022-08-20T10:50:38.366Z,52.63
2022-08-20T10:54:42.254Z,53.90
2022-08-20T10:58:46.173Z,56.33
2022-08-20T11:02:48.813Z,55.84
2022-08-20T11:06:51.403Z,55.02
2022-08-20T11:10:54.043Z,55.35
2022-08-20T11:14:57.898Z,56.60
2022-08-20T11:19:00.512Z,60.02
2022-08-20T11:23:03.079Z,62.23
2022-08-20T11:27:07.570Z,63.72
2022-08-20T11:31:11.572Z,66.39
2022-08-20T11:35:40.984Z,69.40
2022-08-20T11:39:41.617Z,70.94
2022-08-20T11:43:59.494Z,71.26
2022-08-20T11:48:08.378Z,70.58
2022-08-20T11:52:10.937Z,71.62
2022-08-20T11:56:18.061Z,73.32
2022-08-20T12:00:32.039Z,71.89
2022-08-20T12:04:37.279Z,71.25
2022-08-20T12:08:40.012Z,71.90
2022-08-20T12:12:42.587Z,68.09
2022-08-20T12:16:45.162Z,66.77
2022-08-20T12:20:50.851Z,66.15
2022-08-20T12:24:54.234Z,63.50
2022-08-20T12:28:56.786Z,64.30
2022-08-20T12:32:59.696Z,63.97
2022-08-20T12:37:05.645Z,65.42
2022-08-20T12:41:08.267Z,63.09
2022-08-20T12:45:11.762Z,61.55
2022-08-20T12:49:14.332Z,61.14
2022-08-20T12:53:18.614Z,61.25
2022-08-20T12:57:26.261Z,59.76
2022-08-20T13:01:28.860Z,58.80
2022-08-20T13:05:31.825Z,58.21
2022-08-20T13:09:35.693Z,57.74
2022-08-20T13:13:43.501Z,62.77
2022-08-20T13:17:46.173Z,65.17
2022-08-20T13:21:54.856Z,66.46
2022-08-20T13:25:59.139Z,66.45
2022-08-20T13:30:01.679Z,64.54
2022-08-20T13:34:04.346Z,65.74
2022-08-20T13:38:07.117Z,65.83
2022-08-20T13:42:11.615Z,67.58
2022-08-20T13:46:14.239Z,69.13
2022-08-20T13:50:20.250Z,65.31
2022-08-20T13:54:23.960Z,64.83
2022-08-20T13:58:33.660Z,65.16
2022-08-20T14:02:36.214Z,66.09
2022-08-20T14:06:38.780Z,66.49
2022-08-20T14:10:42.537Z,67.04
2022-08-20T14:14:46.867Z,67.76
2022-08-20T14:18:52.734Z,67.29
2022-08-20T14:22:55.794Z,67.04
2022-08-20T14:26:58.362Z,66.35
2022-08-20T14:31:02.300Z,66.68
2022-08-20T14:35:05.920Z,66.14
2022-08-20T14:39:08.726Z,66.30
2022-08-20T14:43:11.171Z,66.84
2022-08-20T14:47:18.759Z,67.90
2022-08-20T14:51:21.328Z,68.42
2022-08-20T14:55:26.579Z,67.61
2022-08-20T14:59:29.229Z,70.44
2022-08-20T15:03:33.104Z,71.26
2022-08-20T15:07:38.581Z,71.49
2022-08-20T15:11:41.404Z,71.63
2022-08-20T15:15:43.859Z,72.21
2022-08-20T15:19:47.767Z,73.96
2022-08-20T15:23:50.470Z,74.31
2022-08-20T15:27:58.320Z,76.03
2022-08-20T15:32:04.712Z,77.38
2022-08-20T15:36:10.836Z,78.40
2022-08-20T15:40:16.784Z,76.78
2022-08-20T15:44:19.424Z,73.57
2022-08-20T15:48:31.521Z,71.23
2022-08-20T15:52:42.100Z,66.95
2022-08-20T15:56:53.740Z,65.04
2022-08-20T16:01:24.457Z,61.48
2022-08-20T16:05:41.800Z,60.56
2022-08-20T16:10:00.577Z,60.13
2022-08-20T16:14:11.747Z,59.48
2022-08-20T16:18:20.167Z,58.45
2022-08-20T16:22:33.041Z,56.96
2022-08-20T16:26:52.362Z,56.49
2022-08-20T16:31:02.766Z,57.72
2022-08-20T16:35:26.282Z,57.28
2022-08-20T16:39:40.363Z,61.24
2022-08-20T16:43:51.973Z,61.52
2022-08-20T16:48:00.068Z,62.69
2022-08-20T16:52:02.795Z,61.67
2022-08-20T16:56:06.202Z,60.16
2022-08-20T17:00:14.576Z,58.15
2022-08-20T17:04:21.904Z,55.31
2022-08-20T17:08:28.432Z,54.73
2022-08-20T17:12:32.406Z,54.33
2022-08-20T17:16:38.288Z,53.23
2022-08-20T17:20:46.048Z,53.48
2022-08-20T17:24:48.943Z,53.47
2022-08-20T17:28:53.218Z,54.96
2022-08-20T17:33:00.424Z,57.08
2022-08-20T17:37:08.379Z,57.81
2022-08-20T17:41:17.196Z,60.08
2022-08-20T17:45:23.631Z,62.59
2022-08-20T17:49:35.588Z,64.39
2022-08-20T17:53:41.034Z,66.24
2022-08-20T17:57:46.272Z,69.23
2022-08-20T18:01:58.366Z,69.72
2022-08-20T18:06:08.423Z,70.16
2022-08-20T18:10:16.619Z,71.31
2022-08-20T18:14:43.888Z,72.41
2022-08-20T18:18:56.599Z,74.01
2022-08-20T18:23:04.458Z,74.80
2022-08-20T18:27:14.848Z,74.41
2022-08-20T18:31:27.884Z,73.80
2022-08-20T18:35:35.150Z,73.43
2022-08-20T18:39:41.443Z,73.70
2022-08-20T18:43:44.600Z,73.95
2022-08-20T18:47:47.735Z,74.33
2022-08-20T18:51:51.766Z,75.83
2022-08-20T18:56:05.035Z,76.92
2022-08-20T19:00:11.921Z,78.47
2022-08-20T19:04:24.308Z,78.87
2022-08-20T19:08:40.084Z,78.85
2022-08-20T19:13:14.185Z,78.15
2022-08-20T19:17:24.736Z,76.93
2022-08-20T19:21:32.519Z,76.03
2022-08-20T19:25:37.831Z,76.94
2022-08-20T19:29:47.181Z,77.13
2022-08-20T19:33:51.604Z,77.28
2022-08-20T19:37:54.466Z,75.94
2022-08-20T19:41:59.513Z,76.67
2022-08-20T19:46:03.536Z,76.92
2022-08-20T19:50:18.318Z,78.67
2022-08-20T19:54:22.438Z,79.58
2022-08-20T19:58:26.653Z,79.39
2022-08-20T20:02:33.007Z,80.82
2022-08-20T20:06:38.763Z,80.94
2022-08-20T20:10:41.465Z,80.83
2022-08-20T20:14:45.305Z,80.36
2022-08-20T20:19:09.091Z,80.89
2022-08-20T20:23:15.866Z,81.23
2022-08-20T20:27:23.365Z,81.27
2022-08-20T20:31:30.242Z,81.20
2022-08-20T20:35:36.300Z,82.50
2022-08-20T20:39:41.676Z,83.18
2022-08-20T20:43:44.692Z,84.00
2022-08-20T20:47:50.140Z,84.84
2022-08-20T20:51:58.766Z,84.80
2022-08-20T20:56:01.422Z,83.57
2022-08-20T21:00:06.288Z,84.78
2022-08-20T21:04:09.337Z,85.70
2022-08-20T21:08:13.600Z,85.52
2022-08-20T21:12:16.202Z,84.63
2022-08-20T21:16:18.890Z,84.30
2022-08-20T21:20:22.508Z,84.43
2022-08-20T21:24:26.494Z,84.70
2022-08-20T21:28:29.816Z,85.00
2022-08-20T21:32:32.688Z,84.97
2022-08-20T21:36:35.560Z,85.11
2022-08-20T21:40:39.466Z,83.84
2022-08-20T21:44:47.955Z,83.38
2022-08-20T21:48:52.323Z,83.06
2022-08-20T21:52:59.134Z,83.85
2022-08-20T21:57:07.218Z,85.05
2022-08-20T22:01:09.859Z,85.72
2022-08-20T22:05:12.535Z,86.28
2022-08-20T22:09:15.858Z,86.30
2022-08-20T22:13:19.996Z,86.64
2022-08-20T22:17:22.584Z,87.11
2022-08-20T22:21:27.591Z,87.48
2022-08-20T22:25:30.365Z,87.76
2022-08-20T22:29:34.316Z,87.92
2022-08-20T22:33:37.344Z,87.84
2022-08-20T22:37:40.006Z,86.32
2022-08-20T22:41:42.565Z,87.73
2022-08-20T22:45:49.662Z,87.32
2022-08-20T22:49:52.334Z,86.94
2022-08-20T22:53:54.970Z,87.32
2022-08-20T22:57:57.620Z,88.19
2022-08-20T23:02:08.330Z,88.65
2022-08-20T23:06:11.879Z,88.85
2022-08-20T23:10:15.113Z,89.52
2022-08-20T23:14:17.641Z,90.02
2022-08-20T23:18:21.581Z,89.98
2022-08-20T23:22:24.169Z,88.85
2022-08-20T23:26:26.761Z,88.16
2022-08-20T23:30:29.951Z,88.40
2022-08-20T23:34:33.709Z,88.56
2022-08-20T23:38:36.531Z,88.37
2022-08-20T23:42:39.492Z,89.04
2022-08-20T23:46:42.075Z,91.24
2022-08-20T23:50:46.142Z,91.37
2022-08-20T23:54:48.731Z,91.19
2022-08-20T23:58:51.415Z,92.85
